Time;durP1;ratioP1;P1;durP2;ratioP2;P2;SDS_P1;SDS_P2;PMS_P1;PMS_P2;Temp;Humidity;BMP_temperature;BMP_pressure;BME280_temperature;BME280_humidity;BME280_pressure;Samples;Min_cycle;Max_cycle;Signal;HPM_P1;HPM_P2
2022/07/15 00:01:34;;;;;;;10.52;4.88;;;;;;;19.49;69.78;94816.00;4968476;28;20696;-79
2022/07/15 00:04:01;;;;;;;9.20;4.90;;;;;;;19.38;69.15;94817.84;4969783;28;20691;-79
2022/07/15 00:06:28;;;;;;;12.88;5.07;;;;;;;19.35;69.16;94814.97;4956695;28;20206;-83
2022/07/15 00:08:55;;;;;;;8.95;5.25;;;;;;;19.26;69.36;94814.72;4972783;28;20201;-81
2022/07/15 00:11:22;;;;;;;12.38;5.50;;;;;;;19.17;69.85;94805.78;4962994;28;20733;-80
2022/07/15 00:13:50;;;;;;;16.77;9.00;;;;;;;19.18;70.35;94810.78;4967695;28;20204;-79
2022/07/15 00:16:17;;;;;;;24.27;11.32;;;;;;;19.19;70.45;94816.84;4959031;28;20727;-79
2022/07/15 00:18:44;;;;;;;27.23;10.43;;;;;;;19.12;72.08;94818.97;4966384;28;20212;-84
2022/07/15 00:21:11;;;;;;;27.35;10.73;;;;;;;19.16;71.40;94815.53;4973047;28;20208;-83
2022/07/15 00:23:38;;;;;;;26.38;10.43;;;;;;;19.07;71.20;94811.88;4973193;28;20205;-82
2022/07/15 00:26:15;;;;;;;11.70;5.85;;;;;;;18.95;70.48;94819.28;4972686;28;20212;-82
2022/07/15 00:28:42;;;;;;;9.68;4.97;;;;;;;18.79;71.05;94816.91;4946228;28;20260;-80
2022/07/15 00:31:11;;;;;;;12.35;5.60;;;;;;;18.61;72.86;94811.09;4952715;28;20230;-78
2022/07/15 00:33:37;;;;;;;12.55;6.20;;;;;;;18.45;74.50;94812.13;4955676;28;20671;-79
2022/07/15 00:36:05;;;;;;;10.85;6.15;;;;;;;18.48;76.08;94813.44;4971899;28;20209;-79
2022/07/15 00:38:32;;;;;;;12.52;6.15;;;;;;;18.51;75.73;94805.84;4972267;28;20212;-79
2022/07/15 00:40:58;;;;;;;16.35;6.80;;;;;;;18.58;75.62;94808.22;4972225;28;20219;-79
2022/07/15 00:43:25;;;;;;;14.07;6.63;;;;;;;18.59;75.59;94807.94;4972110;28;20208;-79
2022/07/15 00:45:52;;;;;;;15.25;6.80;;;;;;;18.62;75.94;94809.25;4971727;28;20209;-78
2022/07/15 00:48:21;;;;;;;12.88;6.43;;;;;;;18.62;76.27;94812.69;4972212;28;20591;-78
2022/07/15 00:50:48;;;;;;;11.23;6.25;;;;;;;18.57;76.10;94804.81;4971863;28;20231;-82
2022/07/15 00:53:18;;;;;;;11.63;6.30;;;;;;;18.64;76.52;94800.03;4972066;28;20205;-79
2022/07/15 00:55:50;;;;;;;15.27;6.38;;;;;;;18.60;76.33;94795.59;4971846;28;20204;-79
2022/07/15 00:58:19;;;;;;;14.65;6.43;;;;;;;18.57;76.51;94796.09;4959216;28;20718;-79
2022/07/15 01:00:47;;;;;;;14.30;6.43;;;;;;;18.56;76.99;94791.88;4972274;28;20205;-79
2022/07/15 01:03:17;;;;;;;16.02;6.07;;;;;;;18.52;76.94;94789.00;4971844;28;20208;-80
2022/07/15 01:05:46;;;;;;;18.13;6.93;;;;;;;18.53;76.32;94789.78;4972033;28;20205;-81
2022/07/15 01:08:13;;;;;;;20.73;6.72;;;;;;;18.55;76.46;94787.69;4968491;28;20656;-81
2022/07/15 01:10:41;;;;;;;9.73;5.68;;;;;;;18.52;76.89;94790.84;4963262;28;20229;-80
2022/07/15 01:13:08;;;;;;;12.25;5.85;;;;;;;18.48;76.64;94795.03;4968097;28;20264;-80
2022/07/15 01:15:35;;;;;;;9.68;5.47;;;;;;;18.47;76.49;94793.47;4968515;28;20236;-81
2022/07/15 01:18:04;;;;;;;12.45;5.57;;;;;;;18.47;76.07;94796.84;4970982;28;20225;-81
2022/07/15 01:20:32;;;;;;;12.25;5.45;;;;;;;18.35;76.04;94780.56;4965366;28;20212;-82
2022/07/15 01:23:01;;;;;;;8.30;4.90;;;;;;;18.37;76.50;94780.28;4968758;28;20206;-83
2022/07/15 01:25:29;;;;;;;14.13;5.55;;;;;;;18.34;77.08;94786.88;4953256;29;20210;-83
2022/07/15 01:27:56;;;;;;;11.75;5.07;;;;;;;18.29;77.32;94778.19;4952955;29;20197;-83
2022/07/15 01:30:23;;;;;;;7.45;4.60;;;;;;;18.30;77.32;94783.16;4952745;29;20276;-83
2022/07/15 01:32:50;;;;;;;8.18;4.35;;;;;;;18.24;75.82;94770.28;4968297;28;20205;-83
2022/07/15 01:35:17;;;;;;;8.63;4.13;;;;;;;18.26;76.04;94783.97;4961855;28;20243;-83
2022/07/15 01:37:44;;;;;;;7.70;4.90;;;;;;;18.19;75.83;94780.78;4959615;28;20564;-83
2022/07/15 01:40:13;;;;;;;7.43;4.13;;;;;;;18.05;76.40;94776.06;4952963;29;20656;-81
2022/07/15 01:42:40;;;;;;;9.40;4.53;;;;;;;18.02;77.66;94783.66;4959393;28;20210;-80
2022/07/15 01:45:08;;;;;;;8.07;3.90;;;;;;;18.00;77.70;94776.06;4965817;28;20206;-80
2022/07/15 01:47:45;;;;;;;5.97;4.28;;;;;;;18.03;77.62;94778.16;4955730;28;20738;-80
2022/07/15 01:50:11;;;;;;;6.23;4.33;;;;;;;18.03;77.64;94778.16;4967676;28;20216;-80
2022/07/15 01:52:38;;;;;;;10.32;4.00;;;;;;;17.96;77.90;94788.13;4965685;28;20209;-80
2022/07/15 01:55:07;;;;;;;6.88;4.13;;;;;;;17.93;77.60;94783.38;4973972;28;20624;-80
2022/07/15 01:57:36;;;;;;;8.15;4.22;;;;;;;17.96;77.42;94789.97;4964927;28;20216;-80
2022/07/15 02:00:04;;;;;;;9.50;3.83;;;;;;;17.86;77.75;94789.94;4969955;28;20197;-80
2022/07/15 02:02:31;;;;;;;8.33;4.10;;;;;;;17.63;78.81;94790.41;4967282;28;20212;-80
2022/07/15 02:04:58;;;;;;;8.05;4.35;;;;;;;17.57;78.85;94771.22;4975616;28;20585;-80
2022/07/15 02:07:25;;;;;;;10.97;4.30;;;;;;;17.61;79.30;94785.41;4975420;28;20208;-80
2022/07/15 02:09:52;;;;;;;7.40;3.87;;;;;;;17.58;79.21;94784.06;4962307;28;20208;-80
2022/07/15 02:12:19;;;;;;;8.30;4.17;;;;;;;17.54;79.33;94782.22;4974894;28;20209;-82
2022/07/15 02:14:47;;;;;;;6.97;4.00;;;;;;;17.60;79.69;94781.22;4975486;28;20311;-85
2022/07/15 02:17:14;;;;;;;5.90;4.23;;;;;;;17.62;79.53;94778.31;4971845;28;20209;-84
2022/07/15 02:19:41;;;;;;;7.37;4.00;;;;;;;17.65;79.77;94785.69;4960065;28;20204;-83
2022/07/15 02:22:08;;;;;;;6.67;4.43;;;;;;;17.70;80.16;94780.44;4975889;28;20205;-83
2022/07/15 02:24:34;;;;;;;11.67;4.10;;;;;;;17.67;80.44;94779.09;4975783;28;20304;-83
2022/07/15 02:27:01;;;;;;;9.03;4.37;;;;;;;17.66;80.17;94780.19;4958920;28;20220;-83
2022/07/15 02:29:28;;;;;;;12.57;4.40;;;;;;;17.68;80.40;94785.16;4964881;28;20691;-84
2022/07/15 02:31:56;;;;;;;10.63;3.93;;;;;;;17.64;80.99;94787.50;4965736;28;20225;-84
2022/07/15 02:34:23;;;;;;;8.80;4.20;;;;;;;17.66;80.99;94782.81;4972139;28;20331;-84
2022/07/15 02:36:50;;;;;;;6.60;4.03;;;;;;;17.66;81.25;94782.00;4959751;28;20216;-84
2022/07/15 02:39:17;;;;;;;11.87;4.30;;;;;;;17.65;80.93;94769.91;4958730;28;20224;-83
2022/07/15 02:41:44;;;;;;;8.65;4.00;;;;;;;17.71;81.18;94782.81;4965497;28;20264;-83
2022/07/15 02:44:10;;;;;;;13.23;4.77;;;;;;;17.72;81.17;94773.84;4971517;28;20205;-84
2022/07/15 02:46:37;;;;;;;10.07;4.20;;;;;;;17.68;80.58;94764.94;4975147;28;20200;-84
2022/07/15 02:49:06;;;;;;;8.40;4.13;;;;;;;17.52;80.75;94747.47;4957771;28;20211;-84
2022/07/15 02:51:32;;;;;;;9.27;3.67;;;;;;;17.67;80.76;94779.09;4974752;28;20228;-84
2022/07/15 02:53:59;;;;;;;10.47;4.23;;;;;;;17.69;80.62;94778.88;4960914;28;20645;-84
2022/07/15 02:56:26;;;;;;;9.43;4.30;;;;;;;17.67;80.61;94778.31;4967351;28;20208;-84
2022/07/15 02:58:53;;;;;;;13.53;4.80;;;;;;;17.64;81.19;94778.81;4960011;28;20205;-80
2022/07/15 03:01:20;;;;;;;13.60;4.10;;;;;;;17.63;81.51;94777.25;4961427;28;20200;-79
2022/07/15 03:03:46;;;;;;;11.80;4.30;;;;;;;17.54;81.67;94771.72;4974474;28;20228;-81
2022/07/15 03:06:15;;;;;;;8.27;4.20;;;;;;;17.49;80.71;94775.06;4972896;28;20207;-81
2022/07/15 03:08:42;;;;;;;10.13;4.27;;;;;;;17.55;80.03;94781.97;4955411;28;20213;-81
2022/07/15 03:11:10;;;;;;;18.13;4.73;;;;;;;17.48;80.65;94784.03;4967709;28;20228;-81
2022/07/15 03:13:37;;;;;;;8.60;4.10;;;;;;;17.45;80.75;94778.47;4968693;28;20224;-81
2022/07/15 03:16:04;;;;;;;12.23;4.50;;;;;;;17.47;81.20;94786.88;4967110;28;20240;-81
2022/07/15 03:18:31;;;;;;;11.90;4.57;;;;;;;17.45;80.61;94781.91;4973716;28;20200;-80
2022/07/15 03:20:58;;;;;;;13.07;4.10;;;;;;;17.34;81.26;94776.88;4967676;28;20202;-80
2022/07/15 03:23:26;;;;;;;13.20;4.43;;;;;;;17.29;81.62;94776.81;4966554;28;20204;-80
2022/07/15 03:25:53;;;;;;;11.77;4.23;;;;;;;17.26;81.60;94772.88;4968258;28;20220;-80
2022/07/15 03:28:20;;;;;;;12.87;4.80;;;;;;;17.20;81.79;94765.25;4960094;28;20220;-81
2022/07/15 03:30:47;;;;;;;14.37;4.50;;;;;;;17.26;81.82;94767.63;4961463;28;20220;-83
2022/07/15 03:33:13;;;;;;;9.40;4.10;;;;;;;17.27;81.67;94765.78;4967823;28;20240;-83
2022/07/15 03:35:42;;;;;;;12.17;3.73;;;;;;;17.34;80.86;94772.41;4974153;28;20217;-82
2022/07/15 03:38:09;;;;;;;12.20;3.83;;;;;;;17.37;80.66;94763.22;4966866;28;20205;-82
2022/07/15 03:40:37;;;;;;;12.00;4.27;;;;;;;17.37;80.29;94769.22;4968454;28;20201;-82
2022/07/15 03:43:04;;;;;;;13.03;4.33;;;;;;;17.37;79.43;94763.97;4960735;28;20201;-83
2022/07/15 03:45:31;;;;;;;9.37;3.83;;;;;;;17.40;79.21;94771.34;4969203;28;20216;-82
2022/07/15 03:47:58;;;;;;;8.97;4.03;;;;;;;17.36;79.44;94774.75;4973763;28;20569;-86
2022/07/15 03:50:24;;;;;;;9.37;3.90;;;;;;;17.40;79.25;94784.50;4954192;28;20205;-83
2022/07/15 03:52:51;;;;;;;8.87;4.20;;;;;;;17.44;78.59;94782.94;4966400;28;20200;-83
2022/07/15 03:55:18;;;;;;;10.00;4.20;;;;;;;17.39;78.59;94777.66;4961280;28;20217;-86
2022/07/15 03:57:46;;;;;;;11.57;3.90;;;;;;;17.43;78.45;94775.34;4959815;28;20688;-86
2022/07/15 04:00:14;;;;;;;13.63;4.47;;;;;;;17.42;78.74;94782.41;4954846;28;20210;-87
2022/07/15 04:02:41;;;;;;;8.20;4.20;;;;;;;17.47;78.79;94784.25;4960262;28;20667;-86
2022/07/15 04:05:09;;;;;;;8.70;3.80;;;;;;;17.41;78.38;94780.81;4973834;28;20185;-84
2022/07/15 04:07:36;;;;;;;9.53;3.70;;;;;;;17.36;78.17;94786.06;4973230;28;20211;-84
2022/07/15 04:10:03;;;;;;;8.03;3.60;;;;;;;17.30;77.74;94776.59;4973417;28;20241;-85
2022/07/15 04:12:30;;;;;;;8.20;3.77;;;;;;;17.25;78.28;94773.94;4954457;28;20229;-84
2022/07/15 04:14:59;;;;;;;3.87;3.23;;;;;;;17.37;77.85;94781.59;4963816;28;20232;-86
2022/07/15 04:17:26;;;;;;;9.43;3.57;;;;;;;17.40;77.40;94778.47;4959973;28;20201;-85
2022/07/15 04:19:52;;;;;;;6.78;4.10;;;;;;;17.45;76.49;94781.91;4954015;28;20201;-84
2022/07/15 04:22:20;;;;;;;5.63;3.80;;;;;;;17.35;76.04;94770.53;4957313;28;20582;-80
2022/07/15 04:24:46;;;;;;;7.80;3.87;;;;;;;17.41;76.10;94782.66;4965962;28;20209;-81
2022/07/15 04:27:13;;;;;;;10.20;3.07;;;;;;;17.13;76.80;94790.94;4965079;28;20208;-81
2022/07/15 04:29:40;;;;;;;7.17;3.20;;;;;;;17.14;76.29;94793.31;4955446;28;20205;-84
2022/07/15 04:32:09;;;;;;;13.10;3.73;;;;;;;17.14;76.90;94788.06;4953504;29;20608;-83
2022/07/15 04:34:36;;;;;;;5.63;3.27;;;;;;;17.06;76.68;94790.34;4958656;28;20208;-83
2022/07/15 04:37:03;;;;;;;6.23;3.60;;;;;;;17.08;76.53;94783.84;4961663;28;20290;-84
2022/07/15 04:39:30;;;;;;;5.83;3.67;;;;;;;17.09;76.92;94790.66;4958405;28;20702;-85
2022/07/15 04:41:57;;;;;;;5.43;3.60;;;;;;;17.05;77.27;94780.91;4961384;28;20264;-84
2022/07/15 04:44:24;;;;;;;6.00;3.53;;;;;;;17.08;77.31;94786.47;4965013;28;20213;-84
2022/07/15 04:46:51;;;;;;;6.87;3.77;;;;;;;17.18;76.97;94786.50;4961757;28;20214;-84
2022/07/15 04:52:03;;;;;;;9.47;4.40;;;;;;;17.41;76.57;94787.91;4953451;28;20217;-84
2022/07/15 04:54:30;;;;;;;9.80;4.30;;;;;;;17.49;75.97;94790.84;4968279;28;20205;-84
2022/07/15 04:56:57;;;;;;;8.03;4.20;;;;;;;17.59;75.32;94792.75;4972496;28;20220;-83
2022/07/15 04:59:24;;;;;;;9.93;4.00;;;;;;;17.59;75.10;94787.50;4959610;28;20212;-83
2022/07/15 05:01:51;;;;;;;7.10;3.87;;;;;;;17.72;74.41;94786.25;4972451;28;20204;-83
2022/07/15 05:04:19;;;;;;;8.43;4.07;;;;;;;17.87;74.75;94794.94;4965858;28;20200;-83
2022/07/15 05:06:46;;;;;;;8.27;4.40;;;;;;;17.90;75.38;94788.38;4972539;28;20208;-83
2022/07/15 05:09:12;;;;;;;8.30;4.37;;;;;;;17.98;74.41;94788.66;4972900;28;20259;-81
2022/07/15 05:11:40;;;;;;;10.65;3.97;;;;;;;18.02;74.84;94794.97;4971802;28;20224;-75
2022/07/15 05:14:07;;;;;;;13.35;4.13;;;;;;;18.07;74.68;94792.34;4961120;28;20205;-74
2022/07/15 05:16:33;;;;;;;8.07;4.50;;;;;;;18.10;74.63;94793.66;4971062;28;20204;-74
2022/07/15 05:19:00;;;;;;;9.50;4.50;;;;;;;18.13;74.77;94795.78;4971653;28;20204;-74
2022/07/15 05:21:28;;;;;;;9.83;4.33;;;;;;;18.20;74.32;94792.91;4959976;28;20296;-74
2022/07/15 05:23:55;;;;;;;10.52;4.38;;;;;;;18.26;73.85;94791.84;4947393;28;20205;-73
2022/07/15 05:26:23;;;;;;;9.45;4.53;;;;;;;18.30;74.48;94790.25;4948030;28;20605;-74
2022/07/15 05:28:50;;;;;;;9.63;4.43;;;;;;;18.33;74.78;94787.91;4962447;28;20203;-74
2022/07/15 05:31:17;;;;;;;14.30;4.70;;;;;;;18.40;73.78;94780.56;4970554;28;20240;-74
2022/07/15 05:33:44;;;;;;;11.32;4.53;;;;;;;18.41;72.70;94787.38;4965461;28;20224;-74
2022/07/15 05:36:15;;;;;;;11.50;5.07;;;;;;;18.50;72.20;94782.41;4951095;28;20205;-74
2022/07/15 05:38:43;;;;;;;9.70;4.68;;;;;;;18.57;71.32;94785.56;4962838;28;20532;-73
2022/07/15 05:41:10;;;;;;;5.82;4.20;;;;;;;18.61;70.68;94790.03;4969958;28;20300;-74
2022/07/15 05:43:37;;;;;;;10.05;5.13;;;;;;;18.72;70.85;94784.78;4970546;28;20208;-75
2022/07/15 05:46:04;;;;;;;13.55;5.13;;;;;;;18.73;70.61;94781.88;4952537;28;20216;-75
2022/07/15 05:48:31;;;;;;;9.35;4.93;;;;;;;18.81;70.72;94784.00;4950952;28;20205;-75
2022/07/15 05:50:58;;;;;;;10.30;4.35;;;;;;;18.91;69.88;94788.44;4951076;28;20205;-75
2022/07/15 05:53:28;;;;;;;10.82;4.93;;;;;;;18.91;69.15;94789.22;4955447;28;20601;-75
2022/07/15 05:55:57;;;;;;;8.55;4.50;;;;;;;18.95;68.46;94778.97;4970189;28;20263;-75
2022/07/15 05:58:24;;;;;;;6.18;4.10;;;;;;;19.02;69.13;94784.72;4964991;28;20213;-74
2022/07/15 06:00:51;;;;;;;12.05;4.93;;;;;;;19.05;69.74;94786.81;4969294;28;20205;-74
2022/07/15 06:03:18;;;;;;;12.13;4.70;;;;;;;19.12;70.90;94787.34;4969737;28;20201;-75
2022/07/15 06:05:45;;;;;;;16.75;4.82;;;;;;;19.18;70.97;94787.06;4970225;28;20225;-75
2022/07/15 06:08:12;;;;;;;13.73;4.72;;;;;;;19.16;71.03;94780.50;4970284;28;20208;-75
2022/07/15 06:10:39;;;;;;;16.50;4.82;;;;;;;19.28;70.63;94788.88;4970402;28;20341;-74
2022/07/15 06:13:07;;;;;;;9.90;4.80;;;;;;;19.32;70.06;94794.41;4965851;28;20291;-75
2022/07/15 06:15:34;;;;;;;13.63;5.32;;;;;;;19.40;70.50;94796.50;4963625;28;20240;-76
2022/07/15 06:18:01;;;;;;;13.20;4.93;;;;;;;19.44;71.49;94787.03;4969852;28;20235;-75
2022/07/15 06:20:28;;;;;;;11.57;5.60;;;;;;;19.53;71.21;94793.31;4966144;28;20870;-76
2022/07/15 06:22:55;;;;;;;11.25;4.57;;;;;;;19.56;71.49;94785.66;4968229;28;20233;-76
2022/07/15 06:25:22;;;;;;;8.75;4.93;;;;;;;19.66;71.74;94790.88;4970441;28;20208;-76
2022/07/15 06:27:49;;;;;;;10.68;4.50;;;;;;;19.72;71.00;94789.81;4970314;28;20209;-76
2022/07/15 06:30:17;;;;;;;14.30;4.93;;;;;;;19.78;71.41;94788.72;4970083;28;20209;-76
2022/07/15 06:32:44;;;;;;;7.20;4.75;;;;;;;19.83;71.49;94787.13;4969923;28;20229;-76
2022/07/15 06:35:11;;;;;;;6.80;4.43;;;;;;;19.90;71.10;94792.88;4969783;28;20204;-75
2022/07/15 06:37:38;;;;;;;16.52;5.22;;;;;;;19.93;70.63;94787.06;4973927;28;20201;-75
2022/07/15 06:40:06;;;;;;;11.65;4.82;;;;;;;20.03;70.47;94785.13;4973397;28;20204;-77
2022/07/15 06:42:33;;;;;;;12.43;5.43;;;;;;;20.13;70.02;94798.28;4973279;28;20280;-77
2022/07/15 06:45:00;;;;;;;10.05;5.15;;;;;;;20.19;69.41;94791.13;4958056;28;20212;-77
2022/07/15 06:47:29;;;;;;;9.27;4.88;;;;;;;20.24;69.05;94789.25;4954082;28;20216;-76
2022/07/15 06:49:55;;;;;;;12.52;5.45;;;;;;;20.32;68.59;94785.25;4954243;28;20296;-77
2022/07/15 06:52:22;;;;;;;7.93;4.35;;;;;;;20.42;67.19;94790.47;4956537;28;21060;-78
2022/07/15 06:54:49;;;;;;;11.18;5.15;;;;;;;20.53;65.09;94785.88;4973448;28;20572;-78
2022/07/15 06:57:17;;;;;;;10.05;4.50;;;;;;;20.60;64.48;94784.53;4972436;28;20587;-78
2022/07/15 06:59:44;;;;;;;8.07;4.82;;;;;;;20.63;64.01;94777.91;4965100;28;20208;-78
2022/07/15 07:02:11;;;;;;;15.73;5.32;;;;;;;20.76;63.18;94783.31;4962267;28;20207;-78
2022/07/15 07:04:42;;;;;;;8.75;5.00;;;;;;;20.80;63.27;94775.63;4964807;28;20233;-78
2022/07/15 07:07:09;;;;;;;14.05;5.03;;;;;;;20.87;63.74;94776.88;4960268;28;20711;-78
2022/07/15 07:09:35;;;;;;;12.55;4.65;;;;;;;20.93;63.72;94781.03;4951626;28;20259;-78
2022/07/15 07:12:02;;;;;;;7.75;5.28;;;;;;;21.02;62.72;94781.22;4942715;28;20257;-76
2022/07/15 07:14:29;;;;;;;22.02;5.88;;;;;;;21.08;61.79;94780.13;4962794;28;20224;-76
2022/07/15 07:16:56;;;;;;;14.35;5.07;;;;;;;21.12;61.86;94783.03;4959978;28;20201;-76
2022/07/15 07:19:23;;;;;;;10.35;4.90;;;;;;;21.15;61.51;94770.03;4959836;28;20977;-85
2022/07/15 07:21:52;;;;;;;11.50;4.72;;;;;;;21.28;60.93;94773.84;4963426;28;20648;-84
2022/07/15 07:24:18;;;;;;;19.83;4.60;;;;;;;21.35;60.25;94774.31;4961410;28;20200;-84
2022/07/15 07:26:45;;;;;;;11.60;4.90;;;;;;;21.50;60.88;94766.97;4961725;28;20710;-82
2022/07/15 07:29:16;;;;;;;13.90;4.85;;;;;;;21.62;60.59;94766.56;4968200;28;20695;-85
2022/07/15 07:31:43;;;;;;;14.77;4.90;;;;;;;21.74;59.91;94771.44;4959043;28;20665;-85
2022/07/15 07:34:10;;;;;;;7.85;4.25;;;;;;;21.79;59.18;94768.75;4969434;28;20675;-86
2022/07/15 07:36:37;;;;;;;19.58;4.63;;;;;;;21.92;60.74;94763.56;4970990;28;20209;-85
2022/07/15 07:39:09;;;;;;;15.05;5.13;;;;;;;22.09;57.49;94768.34;4965851;28;20205;-86
2022/07/15 07:41:36;;;;;;;17.55;4.68;;;;;;;22.10;56.88;94754.06;4969841;28;20690;-85
2022/07/15 07:44:03;;;;;;;22.77;4.65;;;;;;;22.12;57.31;94754.53;4974150;28;20251;-85
2022/07/15 07:46:30;;;;;;;11.63;4.90;;;;;;;22.32;57.52;94767.47;4973760;28;20193;-86
2022/07/15 07:48:57;;;;;;;9.93;4.50;;;;;;;22.53;61.08;94770.59;4959986;28;20201;-85
2022/07/15 07:51:24;;;;;;;11.10;4.82;;;;;;;22.68;56.28;94774.91;4966208;28;20209;-82
2022/07/15 07:53:51;;;;;;;15.35;5.18;;;;;;;22.65;54.65;94770.97;4961194;28;20220;-84
2022/07/15 07:56:20;;;;;;;9.73;4.45;;;;;;;22.70;54.44;94778.84;4960378;28;20201;-81
2022/07/15 07:58:47;;;;;;;8.68;4.28;;;;;;;22.74;55.11;94769.22;4967364;28;20998;-82
2022/07/15 08:01:14;;;;;;;13.85;4.93;;;;;;;22.67;54.42;94754.78;4967017;28;20292;-88
2022/07/15 08:03:45;;;;;;;10.50;4.45;;;;;;;22.80;54.75;94764.63;4959604;28;20205;-80
2022/07/15 08:06:13;;;;;;;9.07;4.20;;;;;;;22.90;54.71;94765.25;4961050;28;20210;-81
2022/07/15 08:08:43;;;;;;;9.60;4.10;;;;;;;22.96;53.01;94766.72;4962788;28;20610;-81
2022/07/15 08:11:10;;;;;;;10.65;4.25;;;;;;;22.99;51.96;94762.69;4966804;28;20684;-81
2022/07/15 08:13:39;;;;;;;10.43;4.40;;;;;;;23.08;52.28;94755.66;4973198;28;20224;-82
2022/07/15 08:16:07;;;;;;;15.52;4.07;;;;;;;23.09;52.56;94736.00;4961375;28;20300;-84
2022/07/15 08:18:34;;;;;;;13.60;4.28;;;;;;;23.31;53.24;94754.69;4972171;28;20216;-89
2022/07/15 08:21:03;;;;;;;18.20;4.38;;;;;;;23.36;54.34;94741.31;4958853;28;20212;-86
2022/07/15 08:23:32;;;;;;;15.07;4.35;;;;;;;23.51;53.33;94743.69;4974964;28;20268;-83
2022/07/15 08:26:00;;;;;;;11.75;4.22;;;;;;;23.59;52.88;94750.16;4965637;28;20213;-81
2022/07/15 08:28:27;;;;;;;8.90;4.60;;;;;;;23.66;53.13;94753.97;4973056;28;20236;-83
2022/07/15 08:30:55;;;;;;;11.07;4.07;;;;;;;23.73;52.38;94754.38;4970876;28;20200;-81
2022/07/15 08:33:22;;;;;;;6.88;4.20;;;;;;;23.77;50.58;94748.47;4969392;28;20224;-81
2022/07/15 08:35:49;;;;;;;10.70;3.88;;;;;;;23.88;57.48;94755.94;4969363;28;20200;-83
2022/07/15 08:38:16;;;;;;;9.85;4.25;;;;;;;24.10;55.09;94748.03;4969184;28;20630;-83
2022/07/15 08:40:44;;;;;;;8.57;3.90;;;;;;;24.32;53.51;94754.47;4958006;28;20601;-83
2022/07/15 08:43:12;;;;;;;5.95;3.53;;;;;;;24.37;49.85;94752.47;4960151;28;20743;-83
2022/07/15 08:45:42;;;;;;;11.13;3.95;;;;;;;24.48;48.05;94745.81;4966874;28;20222;-84
2022/07/15 08:48:11;;;;;;;8.13;3.83;;;;;;;24.52;49.21;94738.81;4953802;29;20201;-84
2022/07/15 08:50:38;;;;;;;9.80;3.80;;;;;;;24.64;49.86;94749.69;4954169;29;20591;-84
2022/07/15 08:53:06;;;;;;;8.70;3.60;;;;;;;24.71;49.27;94749.25;4957306;28;20326;-83
2022/07/15 08:55:33;;;;;;;8.35;3.67;;;;;;;24.80;49.50;94744.81;4968880;28;20204;-83
2022/07/15 08:58:00;;;;;;;6.88;3.42;;;;;;;24.86;48.66;94730.28;4968720;28;20208;-84
2022/07/15 09:00:29;;;;;;;9.68;4.40;;;;;;;24.94;48.61;94734.88;4952840;29;20201;-86
2022/07/15 09:02:58;;;;;;;10.25;3.85;;;;;;;25.02;47.46;94731.44;4962071;28;20236;-84
2022/07/15 09:05:29;;;;;;;9.73;3.55;;;;;;;25.08;45.70;94740.09;4955611;28;20194;-85
2022/07/15 09:07:59;;;;;;;14.77;3.88;;;;;;;25.07;45.51;94741.19;4971802;28;20200;-76
2022/07/15 09:10:41;;;;;;;8.45;3.45;;;;;;;25.22;47.48;94735.47;4962458;28;20201;-83
2022/07/15 09:13:07;;;;;;;7.03;3.88;;;;;;;25.32;48.54;94730.66;4964592;28;20224;-82
2022/07/15 09:15:37;;;;;;;6.28;3.05;;;;;;;25.43;47.56;94736.47;4972764;28;20248;-82
2022/07/15 09:18:08;;;;;;;7.78;3.20;;;;;;;25.57;44.72;94739.81;4972463;28;20204;-83
2022/07/15 09:20:39;;;;;;;8.02;3.40;;;;;;;25.59;43.17;94721.69;4967324;28;20723;-83
2022/07/15 09:23:07;;;;;;;6.80;3.13;;;;;;;25.68;43.62;94732.34;4972202;28;20952;-83
2022/07/15 09:25:35;;;;;;;8.48;3.30;;;;;;;25.63;41.90;94725.28;4972396;28;20862;-83
2022/07/15 09:28:03;;;;;;;13.07;3.15;;;;;;;25.68;41.51;94730.47;4972473;28;20192;-83
2022/07/15 09:33:36;;;;;;;9.77;3.20;;;;;;;25.75;42.18;94722.78;4965803;28;20707;-82
2022/07/15 09:36:08;;;;;;;10.40;3.50;;;;;;;25.90;43.00;94730.34;4971827;28;20212;-82
2022/07/15 09:38:41;;;;;;;6.93;3.13;;;;;;;26.01;41.98;94738.03;4965156;28;20211;-83
2022/07/15 09:41:12;;;;;;;4.82;2.72;;;;;;;26.09;45.28;94722.03;4965458;28;20209;-82
2022/07/15 09:43:49;;;;;;;11.43;3.25;;;;;;;26.25;42.27;94736.50;4965494;28;20200;-82
2022/07/15 09:46:16;;;;;;;12.70;2.90;;;;;;;26.33;40.75;94726.94;4960631;28;20200;-81
2022/07/15 09:48:45;;;;;;;8.32;2.83;;;;;;;26.67;40.40;94734.88;4972387;28;20200;-81
2022/07/15 09:51:13;;;;;;;7.28;2.40;;;;;;;26.96;40.06;94740.34;4965022;28;20232;-81
2022/07/15 09:53:41;;;;;;;6.60;2.65;;;;;;;27.18;39.23;94722.53;4954530;28;20240;-81
2022/07/15 09:56:11;;;;;;;9.45;2.85;;;;;;;27.26;38.29;94729.72;4963288;28;20242;-83
2022/07/15 09:58:40;;;;;;;8.70;2.67;;;;;;;27.30;38.40;94722.66;4964678;28;20267;-80
2022/07/15 10:01:08;;;;;;;5.35;2.85;;;;;;;27.33;37.80;94728.09;4959440;28;20213;-81
2022/07/15 10:03:36;;;;;;;4.30;3.00;;;;;;;27.39;39.04;94713.47;4963650;28;20205;-83
2022/07/15 10:06:03;;;;;;;5.65;2.70;;;;;;;27.56;38.97;94726.00;4959432;28;20209;-82
2022/07/15 10:08:33;;;;;;;6.57;2.70;;;;;;;27.68;38.06;94726.06;4964463;28;20205;-81
2022/07/15 10:11:00;;;;;;;6.85;2.90;;;;;;;27.73;37.78;94728.59;4955986;28;20202;-83
2022/07/15 10:14:01;;;;;;;5.65;3.00;;;;;;;27.78;37.31;94727.59;4962194;28;20955;-81
2022/07/15 10:16:48;;;;;;;7.13;2.83;;;;;;;27.83;36.84;94725.50;4975449;28;20220;-82
2022/07/15 10:19:25;;;;;;;3.47;2.20;;;;;;;27.97;36.48;94727.94;4963002;28;20209;-82
2022/07/15 10:22:06;;;;;;;4.50;2.53;;;;;;;28.08;36.36;94727.25;4966083;28;20267;-82
2022/07/15 10:24:46;;;;;;;5.15;2.38;;;;;;;28.21;34.12;94725.44;4969028;28;20223;-83
2022/07/15 10:27:29;;;;;;;6.20;2.70;;;;;;;28.36;34.34;94726.72;4962551;28;20214;-80
2022/07/15 10:29:57;;;;;;;5.45;2.35;;;;;;;28.55;35.57;94719.00;4970708;28;20209;-85
2022/07/15 10:32:24;;;;;;;5.82;2.83;;;;;;;28.78;33.86;94722.88;4973422;28;20212;-81
2022/07/15 10:34:51;;;;;;;9.57;3.05;;;;;;;28.89;33.50;94723.28;4957779;28;20197;-82
2022/07/15 10:37:18;;;;;;;5.90;2.95;;;;;;;28.93;33.29;94708.09;4960829;28;20206;-82
2022/07/15 10:39:51;;;;;;;5.07;2.30;;;;;;;29.04;33.77;94715.38;4962390;28;20204;-81
2022/07/15 10:42:19;;;;;;;5.82;2.92;;;;;;;29.16;34.79;94711.94;4963550;28;20665;-82
2022/07/15 10:45:02;;;;;;;7.07;2.70;;;;;;;29.29;34.07;94710.06;4973584;28;20209;-82
2022/07/15 10:47:29;;;;;;;9.88;2.75;;;;;;;29.33;34.36;94703.69;4964500;28;20212;-82
2022/07/15 10:49:56;;;;;;;5.22;2.70;;;;;;;29.47;32.96;94704.16;4965431;28;20299;-80
2022/07/15 10:52:24;;;;;;;3.90;2.22;;;;;;;29.51;30.88;94699.69;4966286;28;20208;-82
2022/07/15 10:55:03;;;;;;;4.85;2.40;;;;;;;29.61;31.50;94690.44;4959421;28;20208;-83
2022/07/15 10:57:54;;;;;;;3.15;2.33;;;;;;;29.94;30.70;94695.63;4963315;28;20612;-82
2022/07/15 11:00:30;;;;;;;6.88;2.50;;;;;;;29.96;33.00;94694.19;4963742;28;20636;-83
2022/07/15 11:03:06;;;;;;;3.50;2.40;;;;;;;30.03;31.55;94691.72;4967124;28;20204;-82
2022/07/15 11:05:34;;;;;;;6.22;2.42;;;;;;;30.16;31.20;94692.47;4964158;28;20213;-79
2022/07/15 11:08:00;;;;;;;5.25;2.55;;;;;;;30.28;30.83;94695.88;4968074;28;20301;-83
2022/07/15 11:10:29;;;;;;;4.82;2.65;;;;;;;30.47;31.37;94689.13;4967933;28;20213;-82
2022/07/15 11:13:06;;;;;;;6.22;3.00;;;;;;;30.54;31.79;94687.41;4972057;28;20231;-81
2022/07/15 11:15:34;;;;;;;8.07;2.97;;;;;;;30.51;30.33;94690.78;4959978;28;20307;-83
2022/07/15 11:18:01;;;;;;;5.15;2.60;;;;;;;30.61;31.31;94684.13;4962045;28;20241;-85
2022/07/15 11:20:35;;;;;;;5.22;2.40;;;;;;;30.82;31.02;94684.69;4968339;28;20279;-85
2022/07/15 11:23:03;;;;;;;8.55;2.50;;;;;;;31.05;29.00;94699.13;4973887;28;20177;-83
2022/07/15 11:25:33;;;;;;;4.05;2.10;;;;;;;30.99;27.25;94688.97;4974644;28;20200;-84
2022/07/15 11:28:04;;;;;;;2.70;2.38;;;;;;;30.94;27.54;94684.63;4961168;28;20206;-82
2022/07/15 11:30:34;;;;;;;3.80;2.30;;;;;;;31.06;27.58;94668.44;4954986;28;20223;-85
2022/07/15 11:33:04;;;;;;;7.00;2.50;;;;;;;31.54;29.35;94677.28;4960980;28;20244;-84
2022/07/15 11:35:31;;;;;;;3.85;2.25;;;;;;;31.83;28.86;94682.16;4973253;28;20213;-82
2022/07/15 11:38:00;;;;;;;8.10;2.75;;;;;;;32.18;28.21;94684.84;4968311;28;20201;-81
2022/07/15 11:46:00;;;;;;;4.43;2.58;;;;;;;32.73;26.47;94678.25;4970267;28;20200;-82